createdAt,value
2018-05-09T00:00:19.991Z,75.10
2018-05-09T00:02:46.263Z,75.30
2018-05-09T00:05:12.507Z,75.50
2018-05-09T00:07:38.737Z,76.00
2018-05-09T00:10:04.993Z,76.20
2018-05-09T00:12:32.025Z,76.60
2018-05-09T00:14:58.251Z,76.50
2018-05-09T00:17:24.506Z,77.20
2018-05-09T00:19:50.748Z,77.70
2018-05-09T00:22:16.999Z,78.40
2018-05-09T00:24:43.271Z,79.20
2018-05-09T00:27:09.486Z,80.00
2018-05-09T00:29:35.705Z,80.40
2018-05-09T00:32:02.203Z,81.00
2018-05-09T00:34:28.443Z,81.60
2018-05-09T00:36:54.666Z,82.00
2018-05-09T00:39:21.660Z,82.80
2018-05-09T00:41:47.924Z,82.70
2018-05-09T00:44:14.158Z,83.00
2018-05-09T00:46:40.402Z,83.30
2018-05-09T00:49:06.640Z,83.70
2018-05-09T00:51:32.856Z,83.70
2018-05-09T00:54:11.369Z,83.90
2018-05-09T00:56:37.609Z,83.90
2018-05-09T00:59:04.576Z,84.10
2018-05-09T01:01:30.859Z,84.10
2018-05-09T01:03:57.079Z,84.40
2018-05-09T01:06:23.297Z,84.60
2018-05-09T01:08:56.383Z,84.70
2018-05-09T01:11:23.369Z,85.00
2018-05-09T01:13:49.666Z,84.90
2018-05-09T01:16:15.952Z,85.20
2018-05-09T01:18:42.162Z,85.40
2018-05-09T01:21:09.143Z,85.80
2018-05-09T01:23:35.372Z,85.80
2018-05-09T01:26:01.590Z,85.80
2018-05-09T01:28:27.798Z,86.00
2018-05-09T01:30:54.061Z,86.60
2018-05-09T01:33:20.598Z,87.00
2018-05-09T01:35:46.820Z,87.30
2018-05-09T01:38:13.080Z,87.70
2018-05-09T01:40:39.294Z,88.20
2018-05-09T01:43:05.529Z,88.50
2018-05-09T01:45:31.782Z,88.60
2018-05-09T01:47:58.026Z,89.00
2018-05-09T01:50:24.257Z,89.20
2018-05-09T01:52:50.491Z,89.50
2018-05-09T01:55:16.747Z,89.80
2018-05-09T01:57:42.986Z,90.10
2018-05-09T02:00:09.226Z,90.30
2018-05-09T02:02:35.457Z,90.40
2018-05-09T02:05:01.685Z,90.50
2018-05-09T02:07:27.938Z,90.30
2018-05-09T02:09:54.167Z,90.30
2018-05-09T02:12:20.459Z,90.50
2018-05-09T02:14:46.703Z,90.50
2018-05-09T02:17:12.925Z,90.50
2018-05-09T02:19:39.153Z,90.60
2018-05-09T02:22:05.517Z,90.60
2018-05-09T02:24:31.742Z,90.60
2018-05-09T02:26:58.015Z,90.50
2018-05-09T02:29:24.259Z,90.60
2018-05-09T02:31:50.473Z,90.70
2018-05-09T02:34:16.915Z,90.80
2018-05-09T02:36:43.168Z,90.90
2018-05-09T02:39:09.384Z,91.00
2018-05-09T02:41:35.616Z,91.10
2018-05-09T02:44:01.859Z,91.20
2018-05-09T02:46:28.108Z,91.40
2018-05-09T02:48:54.325Z,91.60
2018-05-09T02:51:20.629Z,91.70
2018-05-09T02:53:47.596Z,92.10
2018-05-09T02:56:14.559Z,92.20
2018-05-09T02:58:40.804Z,92.10
2018-05-09T03:01:07.025Z,92.20
2018-05-09T03:03:33.994Z,92.30
2018-05-09T03:06:00.230Z,92.30
2018-05-09T03:08:27.200Z,92.40
2018-05-09T03:10:53.436Z,92.40
2018-05-09T03:13:19.757Z,92.60
2018-05-09T03:15:45.963Z,92.60
2018-05-09T03:18:12.190Z,92.50
2018-05-09T03:20:38.431Z,92.50
2018-05-09T03:23:04.716Z,92.60
2018-05-09T03:25:31.693Z,92.80
2018-05-09T03:27:57.970Z,92.70
2018-05-09T03:30:24.200Z,92.80
2018-05-09T03:32:50.412Z,92.80
2018-05-09T03:35:17.555Z,93.00
2018-05-09T03:37:43.771Z,92.90
2018-05-09T03:40:10.030Z,93.10
2018-05-09T03:42:36.261Z,93.20
2018-05-09T03:45:02.525Z,93.30
2018-05-09T03:47:28.726Z,93.50
2018-05-09T03:49:54.974Z,93.70
2018-05-09T03:52:21.183Z,93.80
2018-05-09T03:54:47.414Z,93.90
2018-05-09T03:57:13.638Z,93.90
2018-05-09T03:59:40.600Z,94.10
2018-05-09T04:02:19.922Z,94.20
2018-05-09T04:04:58.395Z,94.10
2018-05-09T04:07:36.782Z,94.20
2018-05-09T04:10:03.771Z,94.40
2018-05-09T04:12:30.060Z,94.30
2018-05-09T04:14:56.429Z,94.30
2018-05-09T04:17:23.278Z,94.30
2018-05-09T04:19:49.492Z,94.30
2018-05-09T04:22:15.741Z,94.20
2018-05-09T04:24:42.004Z,94.20
2018-05-09T04:27:08.225Z,94.20
2018-05-09T04:29:34.478Z,94.10
2018-05-09T04:32:00.700Z,94.10
2018-05-09T04:34:26.916Z,94.00
2018-05-09T04:36:53.524Z,94.00
2018-05-09T04:39:19.748Z,94.10
2018-05-09T04:41:46.001Z,94.20
2018-05-09T04:44:13.005Z,94.30
2018-05-09T04:46:39.216Z,94.20
2018-05-09T04:49:05.433Z,94.20
2018-05-09T04:51:32.401Z,94.40
2018-05-09T04:53:59.355Z,94.30
2018-05-09T04:56:26.351Z,94.30
2018-05-09T04:58:52.565Z,94.30
2018-05-09T05:01:19.542Z,94.50
2018-05-09T05:03:45.764Z,94.50
2018-05-09T05:06:13.082Z,94.70
2018-05-09T05:08:40.093Z,95.00
2018-05-09T05:11:06.329Z,95.00
2018-05-09T05:13:32.580Z,95.40
2018-05-09T05:15:58.821Z,95.70
2018-05-09T05:18:25.080Z,95.90
2018-05-09T05:20:51.304Z,96.10
2018-05-09T05:23:17.574Z,96.20
2018-05-09T05:25:43.830Z,96.20
2018-05-09T05:28:10.119Z,96.30
2018-05-09T05:30:36.363Z,96.20
2018-05-09T05:33:02.628Z,96.30
2018-05-09T05:35:28.898Z,96.50
2018-05-09T05:37:55.178Z,96.20
2018-05-09T05:40:22.126Z,95.30
2018-05-09T05:42:49.130Z,95.00
2018-05-09T05:45:15.503Z,95.00
2018-05-09T05:47:41.602Z,94.50
2018-05-09T05:50:07.812Z,94.60
2018-05-09T05:52:34.794Z,94.00
2018-05-09T05:55:01.079Z,94.00
2018-05-09T05:57:27.279Z,93.70
2018-05-09T05:59:53.490Z,93.30
2018-05-09T06:02:20.444Z,92.50
2018-05-09T06:04:47.420Z,92.10
2018-05-09T06:07:13.635Z,92.10
2018-05-09T06:09:40.624Z,91.70
2018-05-09T06:12:06.856Z,91.50
2018-05-09T06:14:33.167Z,91.50
2018-05-09T06:16:59.371Z,91.20
2018-05-09T06:19:25.629Z,91.10
2018-05-09T06:24:21.773Z,91.20
2018-05-09T06:26:48.015Z,91.20
2018-05-09T06:29:14.246Z,90.90
2018-05-09T06:31:40.475Z,90.80
2018-05-09T06:34:06.722Z,90.70
2018-05-09T06:36:33.189Z,90.60
2018-05-09T06:38:59.498Z,90.50
2018-05-09T06:41:25.724Z,90.10
2018-05-09T06:43:52.694Z,89.60
2018-05-09T06:46:19.690Z,89.50
2018-05-09T06:48:45.956Z,89.50
2018-05-09T06:51:12.190Z,89.40
2018-05-09T06:53:38.408Z,88.90
2018-05-09T06:56:04.663Z,88.60
2018-05-09T06:58:30.893Z,88.60
2018-05-09T07:00:57.164Z,88.70
2018-05-09T07:03:23.426Z,88.80
2018-05-09T07:05:49.683Z,88.70
2018-05-09T07:08:15.893Z,88.60
2018-05-09T07:10:42.158Z,87.80
2018-05-09T07:13:08.427Z,86.80
2018-05-09T07:15:34.685Z,86.40
2018-05-09T07:18:01.031Z,86.50
2018-05-09T07:20:27.294Z,86.60
2018-05-09T07:22:54.253Z,86.00
2018-05-09T07:25:20.501Z,86.00
2018-05-09T07:27:47.463Z,85.70
2018-05-09T07:30:14.464Z,85.70
2018-05-09T07:32:40.683Z,85.70
2018-05-09T07:35:06.925Z,85.10
2018-05-09T07:37:33.155Z,84.50
2018-05-09T07:39:59.635Z,83.40
2018-05-09T07:42:25.887Z,83.10
2018-05-09T07:44:52.113Z,82.50
2018-05-09T07:47:18.346Z,82.70
2018-05-09T07:49:44.722Z,82.60
2018-05-09T07:52:10.961Z,82.70
2018-05-09T07:54:37.199Z,81.90
2018-05-09T07:57:03.459Z,81.40
2018-05-09T07:59:29.688Z,80.60
2018-05-09T08:01:56.970Z,80.20
2018-05-09T08:04:23.953Z,79.90
2018-05-09T08:06:50.184Z,79.50
2018-05-09T08:09:17.120Z,81.10
2018-05-09T08:11:43.342Z,81.00
2018-05-09T08:14:09.680Z,80.90
2018-05-09T08:16:36.664Z,78.20
2018-05-09T08:19:03.634Z,78.20
2018-05-09T08:21:30.609Z,77.70
2018-05-09T08:23:56.847Z,77.70
2018-05-09T08:26:23.093Z,76.80
2018-05-09T08:28:49.394Z,75.80
2018-05-09T08:31:15.594Z,76.00
2018-05-09T08:33:41.823Z,75.60
2018-05-09T08:36:08.069Z,74.60
2018-05-09T08:38:34.285Z,74.00
2018-05-09T08:41:00.737Z,73.00
2018-05-09T08:43:27.109Z,72.60
2018-05-09T08:45:54.000Z,70.90
2018-05-09T08:48:20.263Z,70.90
2018-05-09T08:50:46.500Z,69.50
2018-05-09T08:53:12.755Z,68.80
2018-05-09T08:55:38.959Z,69.30
2018-05-09T08:58:05.201Z,68.80
2018-05-09T09:00:31.430Z,67.50
2018-05-09T09:02:57.664Z,66.80
2018-05-09T09:05:23.878Z,64.60
2018-05-09T09:07:50.162Z,64.30
2018-05-09T09:10:16.530Z,64.80
2018-05-09T09:12:43.559Z,64.90
2018-05-09T09:15:09.773Z,64.90
2018-05-09T09:17:36.008Z,65.10
2018-05-09T09:20:02.298Z,64.20
2018-05-09T09:22:28.541Z,64.00
2018-05-09T09:24:54.773Z,64.00
2018-05-09T09:27:21.011Z,62.40
2018-05-09T09:29:47.251Z,62.20
2018-05-09T09:32:13.480Z,61.80
2018-05-09T09:34:39.709Z,60.90
2018-05-09T09:37:05.926Z,60.70
2018-05-09T09:39:32.156Z,60.30
2018-05-09T09:41:58.796Z,59.70
2018-05-09T09:44:25.026Z,58.20
2018-05-09T09:46:51.250Z,58.30
2018-05-09T09:49:18.272Z,59.80
2018-05-09T09:51:44.512Z,59.90
2018-05-09T09:54:10.730Z,59.80
2018-05-09T09:56:36.950Z,59.50
2018-05-09T09:59:03.205Z,59.20
2018-05-09T10:01:29.501Z,58.30
2018-05-09T10:03:55.733Z,56.90
2018-05-09T10:06:21.965Z,56.90
2018-05-09T10:08:48.188Z,56.70
2018-05-09T10:11:14.426Z,56.30
2018-05-09T10:13:40.700Z,55.40
2018-05-09T10:16:06.961Z,54.90
2018-05-09T10:18:33.157Z,53.80
2018-05-09T10:20:59.386Z,52.90
2018-05-09T10:23:25.586Z,52.50
2018-05-09T10:25:51.825Z,52.50
2018-05-09T10:28:18.029Z,51.70
2018-05-09T10:30:44.233Z,50.20
2018-05-09T10:33:11.205Z,48.70
2018-05-09T10:35:37.427Z,48.60
2018-05-09T10:38:03.707Z,48.40
2018-05-09T10:40:29.985Z,47.70
2018-05-09T10:42:57.165Z,46.50
2018-05-09T10:45:23.401Z,46.50
2018-05-09T10:47:49.643Z,45.90
2018-05-09T10:50:15.900Z,45.90
2018-05-09T10:52:42.116Z,45.80
2018-05-09T10:55:09.083Z,45.30
2018-05-09T10:57:36.068Z,45.50
2018-05-09T11:00:02.359Z,44.90
2018-05-09T11:02:29.371Z,44.30
2018-05-09T11:04:55.617Z,44.30
2018-05-09T11:07:21.864Z,42.80
2018-05-09T11:09:48.120Z,42.50
2018-05-09T11:12:15.937Z,42.50
2018-05-09T11:14:42.894Z,41.80
2018-05-09T11:17:09.122Z,41.70
2018-05-09T11:19:35.345Z,41.00
2018-05-09T11:22:01.574Z,40.90
2018-05-09T11:24:27.807Z,40.80
2018-05-09T11:26:54.037Z,40.40
2018-05-09T11:29:20.260Z,38.10
2018-05-09T11:31:46.499Z,38.90
2018-05-09T11:34:12.731Z,39.30
2018-05-09T11:36:38.971Z,39.50
2018-05-09T11:39:05.247Z,39.20
2018-05-09T11:41:31.473Z,39.80
2018-05-09T11:43:57.762Z,40.50
2018-05-09T11:46:24.730Z,40.80
2018-05-09T11:48:51.708Z,40.20
2018-05-09T11:51:17.967Z,40.10
2018-05-09T11:53:44.212Z,39.10
2018-05-09T11:56:10.440Z,38.80
2018-05-09T11:58:36.662Z,38.60
2018-05-09T12:01:02.910Z,38.90
2018-05-09T12:03:29.135Z,40.00
2018-05-09T12:05:56.116Z,41.70
2018-05-09T12:08:22.362Z,41.60
2018-05-09T12:10:48.741Z,42.40
2018-05-09T12:13:14.891Z,43.00
2018-05-09T12:15:41.142Z,43.60
2018-05-09T12:18:08.137Z,43.90
2018-05-09T12:20:34.400Z,43.70
2018-05-09T12:23:01.348Z,41.80
2018-05-09T12:25:27.543Z,41.70
2018-05-09T12:27:54.491Z,39.00
2018-05-09T12:30:20.724Z,38.90
2018-05-09T12:32:46.963Z,39.70
2018-05-09T12:35:13.209Z,38.70
2018-05-09T12:37:39.441Z,39.20
2018-05-09T12:40:05.683Z,40.10
2018-05-09T12:42:31.912Z,40.80
2018-05-09T12:44:58.380Z,40.60
2018-05-09T12:47:25.342Z,39.40
2018-05-09T12:49:51.555Z,39.30
2018-05-09T12:52:17.835Z,40.20
2018-05-09T12:54:44.793Z,41.30
2018-05-09T12:57:11.759Z,41.40
2018-05-09T12:59:38.003Z,41.30
2018-05-09T13:02:04.221Z,41.90
2018-05-09T13:04:31.176Z,40.20
2018-05-09T13:06:57.416Z,40.50
2018-05-09T13:09:23.647Z,40.30
2018-05-09T13:11:49.875Z,40.60
2018-05-09T13:14:16.128Z,40.80
2018-05-09T13:16:42.378Z,41.00
2018-05-09T13:19:08.590Z,40.30
2018-05-09T13:21:34.848Z,39.60
2018-05-09T13:24:01.084Z,38.90
2018-05-09T13:26:27.326Z,37.00
2018-05-09T13:28:53.571Z,35.90
2018-05-09T13:31:19.816Z,35.30
2018-05-09T13:33:46.032Z,35.40
2018-05-09T13:36:12.268Z,35.20
2018-05-09T13:38:38.500Z,35.40
2018-05-09T13:41:04.710Z,35.60
2018-05-09T13:43:30.940Z,35.60
2018-05-09T13:45:58.181Z,37.20
2018-05-09T13:48:24.372Z,37.20
2018-05-09T13:50:50.607Z,36.40
2018-05-09T13:53:16.875Z,36.30
2018-05-09T13:55:43.119Z,35.40
2018-05-09T13:58:09.374Z,35.10
2018-05-09T14:00:35.865Z,34.00
2018-05-09T14:03:02.104Z,34.00
2018-05-09T14:05:28.330Z,33.90
2018-05-09T14:07:55.292Z,35.20
2018-05-09T14:10:21.539Z,35.10
2018-05-09T14:12:47.841Z,36.70
2018-05-09T14:15:14.073Z,37.70
2018-05-09T14:17:40.287Z,38.80
2018-05-09T14:20:06.540Z,39.90
2018-05-09T14:22:32.764Z,40.70
2018-05-09T14:24:59.016Z,41.00
2018-05-09T14:27:25.970Z,43.80
2018-05-09T14:29:52.203Z,43.70
2018-05-09T14:32:18.499Z,45.80
2018-05-09T14:34:44.687Z,47.10
2018-05-09T14:37:10.924Z,48.50
2018-05-09T14:39:37.217Z,49.60
2018-05-09T14:42:03.465Z,50.40
2018-05-09T14:44:30.427Z,51.10
2018-05-09T14:46:57.707Z,51.00
2018-05-09T14:49:23.921Z,50.90
2018-05-09T14:51:50.178Z,51.10
2018-05-09T14:54:17.143Z,51.70
2018-05-09T14:56:43.383Z,51.70
2018-05-09T14:59:09.625Z,52.10
2018-05-09T15:01:35.859Z,52.60
2018-05-09T15:04:02.823Z,51.30
2018-05-09T15:06:29.052Z,51.90
2018-05-09T15:08:56.026Z,50.60
2018-05-09T15:11:22.258Z,50.50
2018-05-09T15:13:49.258Z,48.30
2018-05-09T15:16:15.472Z,48.20
2018-05-09T15:18:41.730Z,47.60
2018-05-09T15:21:07.992Z,47.20
2018-05-09T15:23:34.222Z,47.50
2018-05-09T15:26:00.454Z,47.30
2018-05-09T15:28:26.694Z,46.90
2018-05-09T15:30:52.935Z,46.40
2018-05-09T15:33:19.187Z,45.30
2018-05-09T15:35:45.432Z,44.00
2018-05-09T15:38:11.676Z,43.50
2018-05-09T15:40:37.900Z,41.90
2018-05-09T15:43:04.126Z,39.80
2018-05-09T15:45:30.375Z,39.10
2018-05-09T15:47:57.669Z,38.50
2018-05-09T15:50:23.920Z,37.80
2018-05-09T15:52:50.152Z,36.50
2018-05-09T15:55:16.426Z,36.00
2018-05-09T15:57:43.400Z,35.70
2018-05-09T16:00:09.641Z,35.70
2018-05-09T16:02:35.850Z,35.40
2018-05-09T16:05:02.125Z,35.10
2018-05-09T16:07:28.341Z,35.20
2018-05-09T16:09:55.320Z,36.30
2018-05-09T16:12:21.612Z,36.20
2018-05-09T16:14:47.879Z,36.10
2018-05-09T16:17:14.888Z,35.90
2018-05-09T16:19:41.120Z,35.80
2018-05-09T16:22:07.347Z,35.10
2018-05-09T16:24:34.314Z,35.50
2018-05-09T16:27:01.294Z,35.40
2018-05-09T16:29:27.496Z,35.40
2018-05-09T16:31:54.474Z,36.30
2018-05-09T16:34:20.702Z,35.70
2018-05-09T16:36:46.951Z,34.90
2018-05-09T16:39:13.172Z,34.70
2018-05-09T16:41:39.398Z,35.40
2018-05-09T16:44:05.611Z,36.50
2018-05-09T16:46:31.866Z,37.60
2018-05-09T16:48:59.057Z,37.10
2018-05-09T16:51:25.307Z,36.90
2018-05-09T16:53:51.529Z,36.90
2018-05-09T16:56:18.519Z,37.10
2018-05-09T16:58:44.743Z,37.10
2018-05-09T17:01:11.041Z,37.50
2018-05-09T17:03:37.207Z,37.80
2018-05-09T17:06:04.201Z,39.60
2018-05-09T17:08:30.430Z,39.60
2018-05-09T17:10:56.665Z,40.00
2018-05-09T17:13:22.896Z,40.50
2018-05-09T17:15:49.142Z,41.30
2018-05-09T17:18:15.411Z,41.80
2018-05-09T17:20:41.619Z,42.40
2018-05-09T17:23:07.875Z,43.20
2018-05-09T17:25:34.084Z,44.00
2018-05-09T17:28:01.073Z,45.30
2018-05-09T17:30:27.319Z,45.20
2018-05-09T17:32:53.543Z,45.60
2018-05-09T17:35:19.825Z,46.10
2018-05-09T17:37:46.043Z,46.20
2018-05-09T17:40:12.244Z,46.60
2018-05-09T17:42:39.318Z,47.50
2018-05-09T17:45:05.487Z,47.50
2018-05-09T17:47:31.727Z,47.60
2018-05-09T17:49:58.181Z,48.00
2018-05-09T17:52:24.421Z,48.20
2018-05-09T17:54:50.657Z,48.60
2018-05-09T17:57:16.888Z,49.20
2018-05-09T17:59:43.242Z,49.80
2018-05-09T18:02:09.518Z,51.10
2018-05-09T18:04:35.769Z,51.60
2018-05-09T18:07:02.751Z,51.90
2018-05-09T18:09:28.986Z,51.90
2018-05-09T18:11:55.985Z,53.40
2018-05-09T18:14:22.260Z,53.40
2018-05-09T18:16:48.472Z,53.50
2018-05-09T18:19:14.729Z,53.30
2018-05-09T18:21:40.963Z,53.80
2018-05-09T18:24:07.198Z,54.20
2018-05-09T18:26:33.453Z,54.50
2018-05-09T18:28:59.691Z,54.80
2018-05-09T18:31:27.419Z,55.30
2018-05-09T18:33:53.690Z,55.30
2018-05-09T18:36:19.949Z,56.10
2018-05-09T18:38:46.204Z,56.40
2018-05-09T18:41:13.302Z,57.90
2018-05-09T18:43:39.559Z,57.90
2018-05-09T18:46:05.802Z,58.70
2018-05-09T18:48:32.049Z,58.60
2018-05-09T18:50:58.330Z,58.80
2018-05-09T18:53:24.585Z,59.60
2018-05-09T18:55:51.573Z,59.80
2018-05-09T18:58:17.835Z,59.80
2018-05-09T19:00:44.090Z,59.80
2018-05-09T19:03:10.379Z,60.00
2018-05-09T19:05:36.621Z,60.30
2018-05-09T19:08:02.874Z,60.90
2018-05-09T19:10:29.164Z,61.00
2018-05-09T19:12:55.574Z,61.20
2018-05-09T19:15:21.864Z,61.40
2018-05-09T19:17:48.144Z,61.80
2018-05-09T19:20:14.448Z,62.40
2018-05-09T19:22:40.714Z,61.60
2018-05-09T19:25:07.014Z,62.00
2018-05-09T19:27:33.320Z,62.50
2018-05-09T19:29:59.542Z,62.70
2018-05-09T19:32:25.807Z,62.30
2018-05-09T19:34:52.043Z,62.30
2018-05-09T19:37:18.300Z,62.10
2018-05-09T19:39:44.581Z,62.90
2018-05-09T19:42:11.587Z,62.50
2018-05-09T19:44:37.867Z,62.40
2018-05-09T19:47:04.104Z,62.60
2018-05-09T19:49:30.376Z,62.70
2018-05-09T19:51:57.613Z,62.80
2018-05-09T19:54:23.925Z,62.70
2018-05-09T19:56:50.182Z,62.50
2018-05-09T19:59:16.549Z,63.40
2018-05-09T20:01:42.823Z,64.50
2018-05-09T20:04:09.113Z,65.00
2018-05-09T20:06:35.362Z,65.30
2018-05-09T20:09:01.693Z,65.50
2018-05-09T20:11:27.952Z,65.80
2018-05-09T20:13:55.175Z,66.90
2018-05-09T20:16:21.328Z,66.70
2018-05-09T20:18:47.645Z,67.70
2018-05-09T20:21:13.871Z,67.60
2018-05-09T20:23:40.183Z,67.40
2018-05-09T20:26:06.389Z,67.50
2018-05-09T20:28:32.662Z,67.30
2018-05-09T20:31:18.106Z,67.10
2018-05-09T20:33:45.082Z,66.70
2018-05-09T20:36:11.330Z,66.70
2018-05-09T20:38:37.566Z,67.10
2018-05-09T20:41:03.858Z,68.70
2018-05-09T20:43:30.074Z,69.70
2018-05-09T20:45:57.099Z,71.10
2018-05-09T20:48:23.354Z,71.00
2018-05-09T20:50:49.666Z,71.10
2018-05-09T20:53:15.976Z,71.40
2018-05-09T20:55:42.190Z,71.80
2018-05-09T20:58:08.405Z,72.20
2018-05-09T21:00:34.653Z,72.60
2018-05-09T21:03:00.914Z,72.80
2018-05-09T21:05:27.197Z,72.90
2018-05-09T21:07:55.225Z,73.40
2018-05-09T21:10:21.469Z,74.00
2018-05-09T21:12:47.834Z,74.20
2018-05-09T21:15:14.818Z,74.50
2018-05-09T21:17:41.054Z,74.50
2018-05-09T21:20:07.393Z,74.60
2018-05-09T21:22:33.610Z,74.60
2018-05-09T21:24:59.860Z,75.40
2018-05-09T21:27:26.130Z,76.90
2018-05-09T21:29:52.352Z,78.00
2018-05-09T21:32:18.630Z,78.90
2018-05-09T21:34:44.871Z,79.60
2018-05-09T21:37:11.107Z,79.80
2018-05-09T21:39:37.324Z,80.10
2018-05-09T21:42:03.601Z,80.60
2018-05-09T21:44:29.831Z,81.00
2018-05-09T21:46:56.071Z,81.40
2018-05-09T21:49:22.305Z,81.10
2018-05-09T21:51:48.559Z,81.10
2018-05-09T21:54:14.814Z,81.30
2018-05-09T21:56:41.059Z,81.50
2018-05-09T21:59:07.287Z,81.80
2018-05-09T22:01:33.543Z,82.20
2018-05-09T22:03:59.787Z,82.30
2018-05-09T22:06:26.019Z,82.50
2018-05-09T22:08:52.275Z,82.90
2018-05-09T22:11:18.502Z,83.40
2018-05-09T22:13:44.834Z,83.90
2018-05-09T22:16:11.092Z,84.10
2018-05-09T22:18:37.314Z,84.10
2018-05-09T22:21:03.526Z,84.30
2018-05-09T22:23:29.776Z,84.40
2018-05-09T22:25:55.994Z,84.50
2018-05-09T22:28:22.237Z,84.50
2018-05-09T22:30:48.475Z,84.40
2018-05-09T22:33:14.713Z,84.60
2018-05-09T22:35:40.927Z,85.00
2018-05-09T22:38:07.906Z,85.60
2018-05-09T22:40:34.159Z,85.60
2018-05-09T22:43:00.380Z,85.70
2018-05-09T22:45:27.354Z,86.90
2018-05-09T22:47:53.567Z,86.30
2018-05-09T22:50:20.577Z,87.30
2018-05-09T22:52:46.827Z,87.20
2018-05-09T22:55:13.082Z,87.30
2018-05-09T22:57:39.318Z,87.30
2018-05-09T23:00:05.577Z,87.20
2018-05-09T23:02:31.851Z,87.30
2018-05-09T23:04:58.135Z,87.50
2018-05-09T23:07:24.362Z,87.50
2018-05-09T23:09:50.605Z,87.60
2018-05-09T23:12:19.515Z,88.20
2018-05-09T23:14:45.761Z,89.10
2018-05-09T23:17:11.986Z,90.00
2018-05-09T23:19:38.259Z,90.30
2018-05-09T23:22:04.487Z,90.60
2018-05-09T23:24:30.755Z,90.70
2018-05-09T23:26:56.959Z,90.70
2018-05-09T23:29:23.172Z,90.60
2018-05-09T23:31:49.405Z,90.70
2018-05-09T23:34:15.656Z,90.80
2018-05-09T23:36:41.877Z,90.90
2018-05-09T23:39:08.082Z,91.00
2018-05-09T23:41:34.319Z,91.30
2018-05-09T23:44:00.542Z,91.40
2018-05-09T23:46:26.777Z,91.50
2018-05-09T23:48:53.005Z,91.50
2018-05-09T23:51:19.244Z,91.50
2018-05-09T23:53:45.658Z,91.60
2018-05-09T23:56:12.624Z,91.60
2018-05-09T23:58:38.856Z,91.60
